createdAt,value
2018-08-17T07:55:27.800Z,376.88
2018-08-17T07:56:27.813Z,365.63
2018-08-17T07:58:20.900Z,360.00
2018-08-17T07:59:20.862Z,410.63
2018-08-17T08:01:14.187Z,298.13
2018-08-17T08:02:14.158Z,365.63
2018-08-17T08:04:07.014Z,309.38
2018-08-17T08:05:06.957Z,298.13
2018-08-17T08:07:00.012Z,399.38
2018-08-17T08:07:59.998Z,331.88
2018-08-17T08:09:52.832Z,303.75
2018-08-17T08:10:52.806Z,427.50
2018-08-17T08:12:45.840Z,348.75
2018-08-17T08:13:45.846Z,444.38
2018-08-17T08:15:39.015Z,540.00
2018-08-17T08:16:38.906Z,551.25
2018-08-17T08:18:32.235Z,556.88
2018-08-17T08:19:32.216Z,556.88
2018-08-17T08:21:25.082Z,585.00
2018-08-17T08:22:25.023Z,579.38
2018-08-17T08:24:17.866Z,421.88
2018-08-17T08:25:18.456Z,596.25
2018-08-17T08:26:17.822Z,545.63
2018-08-17T08:27:17.806Z,573.75
2018-08-17T08:28:17.794Z,590.63
2018-08-17T08:29:17.765Z,579.38
2018-08-17T08:30:17.754Z,534.38
2018-08-17T08:31:17.735Z,534.38
2018-08-17T08:32:17.725Z,506.25
2018-08-17T08:33:17.701Z,472.50
2018-08-17T08:34:17.692Z,579.38
2018-08-17T08:35:17.666Z,483.75
2018-08-17T08:36:17.651Z,399.38
2018-08-17T08:37:17.698Z,427.50
2018-08-17T08:38:17.625Z,393.75
2018-08-17T08:39:17.604Z,399.38
2018-08-17T08:40:17.586Z,528.75
2018-08-17T08:41:17.580Z,466.88
2018-08-17T08:42:17.567Z,506.25
2018-08-17T08:43:17.540Z,534.38
2018-08-17T08:44:17.519Z,540.00
2018-08-17T08:45:17.505Z,540.00
2018-08-17T08:46:17.486Z,523.13
2018-08-17T08:47:17.487Z,495.00
2018-08-17T08:48:17.457Z,393.75
2018-08-17T08:49:17.453Z,444.38
2018-08-17T08:50:17.425Z,382.50
2018-08-17T08:51:17.416Z,365.63
2018-08-17T08:52:17.391Z,354.38
2018-08-17T08:53:17.372Z,388.13
2018-08-17T08:54:17.361Z,343.13
2018-08-17T08:55:17.341Z,371.25
2018-08-17T08:56:17.323Z,360.00
2018-08-17T08:57:17.306Z,410.63
2018-08-17T08:58:17.291Z,405.00
2018-08-17T08:59:17.279Z,376.88
2018-08-17T09:00:17.267Z,337.50
2018-08-17T09:01:17.238Z,489.38
2018-08-17T09:02:17.223Z,343.13
2018-08-17T09:03:17.203Z,365.63
2018-08-17T09:04:17.198Z,506.25
2018-08-17T09:05:17.171Z,495.00
2018-08-17T09:06:17.159Z,511.88
2018-08-17T09:07:17.133Z,517.50
2018-08-17T09:08:17.211Z,517.50
2018-08-17T09:09:17.100Z,506.25
2018-08-17T09:10:17.089Z,495.00
2018-08-17T09:11:17.078Z,500.63
2018-08-17T09:12:17.054Z,511.88
2018-08-17T09:13:17.030Z,517.50
2018-08-17T09:14:17.016Z,523.13
2018-08-17T09:15:17.001Z,534.38
2018-08-17T09:16:16.980Z,528.75
2018-08-17T09:17:16.965Z,540.00
2018-08-17T09:18:16.947Z,545.63
2018-08-17T09:19:16.936Z,562.50
2018-08-17T09:20:16.965Z,573.75
2018-08-17T09:21:16.907Z,579.38
2018-08-17T09:22:16.880Z,511.88
2018-08-17T09:23:16.863Z,556.88
2018-08-17T09:24:16.841Z,573.75
2018-08-17T09:25:16.838Z,568.13
2018-08-17T09:26:16.809Z,601.88
2018-08-17T09:27:16.793Z,562.50
2018-08-17T09:29:16.825Z,478.13
2018-08-17T09:30:16.815Z,495.00
2018-08-17T09:31:16.730Z,573.75
2018-08-17T09:32:16.726Z,478.13
2018-08-17T09:33:16.696Z,450.00
2018-08-17T09:34:16.677Z,433.13
2018-08-17T09:35:16.661Z,421.88
2018-08-17T09:36:16.644Z,416.25
2018-08-17T09:37:16.624Z,416.25
2018-08-17T09:38:16.615Z,416.25
2018-08-17T09:39:16.595Z,410.63
2018-08-17T09:40:16.578Z,421.88
2018-08-17T09:41:16.556Z,444.38
2018-08-17T09:42:16.546Z,455.63
2018-08-17T09:43:16.531Z,511.88
2018-08-17T09:44:16.515Z,450.00
2018-08-17T09:45:16.502Z,438.75
2018-08-17T09:46:16.480Z,438.75
2018-08-17T09:47:16.465Z,438.75
2018-08-17T09:48:16.448Z,433.13
2018-08-17T09:49:16.434Z,444.38
2018-08-17T09:50:16.418Z,427.50
2018-08-17T09:51:16.433Z,410.63
2018-08-17T09:52:16.387Z,399.38
2018-08-17T09:53:16.370Z,393.75
2018-08-17T09:54:16.356Z,382.50
2018-08-17T09:55:16.339Z,371.25
2018-08-17T09:56:16.323Z,365.63
2018-08-17T09:57:16.308Z,365.63
2018-08-17T09:58:16.289Z,365.63
2018-08-17T09:59:16.273Z,376.88
2018-08-17T10:00:16.261Z,371.25
2018-08-17T10:01:16.239Z,371.25
2018-08-17T10:02:16.232Z,365.63
2018-08-17T10:03:16.208Z,371.25
2018-08-17T10:04:16.264Z,360.00
2018-08-17T10:05:16.176Z,365.63
2018-08-17T10:06:16.158Z,371.25
2018-08-17T10:07:16.147Z,382.50
2018-08-17T10:08:16.127Z,388.13
2018-08-17T10:09:16.143Z,393.75
2018-08-17T10:10:16.093Z,393.75
2018-08-17T10:11:16.079Z,393.75
2018-08-17T10:12:16.056Z,399.38
2018-08-17T10:13:16.058Z,405.00
2018-08-17T10:14:16.027Z,405.00
2018-08-17T10:15:16.010Z,416.25
2018-08-17T10:16:15.987Z,427.50
2018-08-17T10:17:15.986Z,438.75
2018-08-17T10:18:15.959Z,444.38
2018-08-17T10:19:15.942Z,455.63
2018-08-17T10:20:15.933Z,455.63
2018-08-17T10:21:16.127Z,455.63
2018-08-17T10:22:15.893Z,455.63
2018-08-17T10:23:15.878Z,461.25
2018-08-17T10:24:15.858Z,573.75
2018-08-17T10:25:15.854Z,461.25
2018-08-17T10:26:15.824Z,461.25
2018-08-17T10:27:15.911Z,461.25
2018-08-17T10:28:15.793Z,596.25
2018-08-17T10:29:15.771Z,585.00
2018-08-17T10:30:15.759Z,545.63
2018-08-17T10:31:15.742Z,635.63
2018-08-17T10:32:15.729Z,675.00
2018-08-17T10:33:15.702Z,708.75
2018-08-17T10:34:15.693Z,517.50
2018-08-17T10:35:15.674Z,714.38
2018-08-17T10:36:15.656Z,714.38
2018-08-17T10:37:15.645Z,708.75
2018-08-17T10:38:15.623Z,641.25
2018-08-17T10:39:15.610Z,646.88
2018-08-17T10:40:15.594Z,748.13
2018-08-17T10:41:15.577Z,736.88
2018-08-17T10:42:15.562Z,613.13
2018-08-17T10:43:15.547Z,663.75
2018-08-17T10:44:15.527Z,596.25
2018-08-17T10:45:15.519Z,736.88
2018-08-17T10:46:15.503Z,708.75
2018-08-17T10:47:15.484Z,545.63
2018-08-17T10:48:15.468Z,551.25
2018-08-17T10:49:15.514Z,511.88
2018-08-17T10:50:15.445Z,500.63
2018-08-17T10:51:15.421Z,489.38
2018-08-17T10:52:15.412Z,478.13
2018-08-17T10:53:15.389Z,483.75
2018-08-17T10:54:15.375Z,489.38
2018-08-17T10:55:15.366Z,495.00
2018-08-17T10:56:15.347Z,506.25
2018-08-17T10:57:15.332Z,511.88
2018-08-17T10:58:15.318Z,517.50
2018-08-17T10:59:15.297Z,523.13
2018-08-17T11:00:15.277Z,517.50
2018-08-17T11:01:15.271Z,511.88
2018-08-17T11:02:15.253Z,511.88
2018-08-17T11:03:15.235Z,618.75
2018-08-17T11:04:15.220Z,523.13
2018-08-17T11:05:15.205Z,551.25
2018-08-17T11:06:15.187Z,562.50
2018-08-17T11:07:15.170Z,528.75
2018-08-17T11:08:15.155Z,500.63
2018-08-17T11:09:15.135Z,489.38
2018-08-17T11:10:15.125Z,478.13
2018-08-17T11:11:15.139Z,472.50
2018-08-17T11:12:15.095Z,466.88
2018-08-17T11:13:15.098Z,455.63
2018-08-17T11:14:15.075Z,444.38
2018-08-17T11:15:15.045Z,433.13
2018-08-17T11:16:15.028Z,427.50
2018-08-17T11:17:15.017Z,427.50
2018-08-17T11:18:14.993Z,416.25
2018-08-17T11:19:14.989Z,405.00
2018-08-17T11:20:14.964Z,393.75
2018-08-17T11:21:14.952Z,382.50
2018-08-17T11:22:14.932Z,376.88
2018-08-17T11:23:14.916Z,371.25
2018-08-17T11:24:14.901Z,371.25
2018-08-17T11:25:14.885Z,371.25
2018-08-17T11:26:14.870Z,382.50
2018-08-17T11:27:14.848Z,568.13
2018-08-17T11:28:14.836Z,607.50
2018-08-17T11:29:14.828Z,579.38
2018-08-17T11:30:14.801Z,450.00
2018-08-17T11:31:14.781Z,405.00
2018-08-17T11:32:14.772Z,382.50
2018-08-17T11:33:14.752Z,376.88
2018-08-17T11:34:15.553Z,382.50
2018-08-17T11:35:14.718Z,393.75
2018-08-17T11:36:14.707Z,410.63
2018-08-17T11:37:14.686Z,421.88
2018-08-17T11:38:14.672Z,450.00
2018-08-17T11:39:14.657Z,461.25
2018-08-17T11:40:14.638Z,461.25
2018-08-17T11:41:14.622Z,478.13
2018-08-17T11:42:14.605Z,551.25
2018-08-17T11:43:14.590Z,708.75
2018-08-17T11:44:14.568Z,596.25
2018-08-17T11:45:14.563Z,691.88
2018-08-17T11:46:14.539Z,601.88
2018-08-17T11:47:14.529Z,551.25
2018-08-17T11:48:14.508Z,579.38
2018-08-17T11:49:14.494Z,646.88
2018-08-17T11:50:14.473Z,528.75
2018-08-17T11:51:14.456Z,500.63
2018-08-17T11:52:14.444Z,511.88
2018-08-17T11:53:14.456Z,568.13
2018-08-17T11:54:14.412Z,601.88
2018-08-17T11:55:14.396Z,478.13
2018-08-17T11:56:14.376Z,461.25
2018-08-17T11:57:15.003Z,416.25
2018-08-17T11:58:14.350Z,433.13
2018-08-17T11:59:14.338Z,427.50
2018-08-17T12:00:14.313Z,489.38
2018-08-17T12:01:14.456Z,427.50
2018-08-17T12:02:14.280Z,438.75
2018-08-17T12:03:14.266Z,433.13
2018-08-17T12:04:14.250Z,438.75
2018-08-17T12:05:14.234Z,601.88
2018-08-17T12:06:14.213Z,427.50
2018-08-17T12:07:14.207Z,399.38
2018-08-17T12:08:14.240Z,393.75
2018-08-17T12:09:14.173Z,590.63
2018-08-17T12:10:14.154Z,618.75
2018-08-17T12:11:14.140Z,540.00
2018-08-17T12:12:14.122Z,607.50
2018-08-17T12:13:14.106Z,562.50
2018-08-17T12:14:14.090Z,618.75
2018-08-17T12:15:14.071Z,601.88
2018-08-17T12:16:14.063Z,483.75
2018-08-17T12:17:14.042Z,495.00
2018-08-17T12:18:14.033Z,613.13
2018-08-17T12:19:14.011Z,601.88
2018-08-17T12:20:13.995Z,562.50
2018-08-17T12:21:13.980Z,573.75
2018-08-17T12:22:13.964Z,585.00
2018-08-17T12:23:13.947Z,601.88
2018-08-17T12:24:13.959Z,601.88
2018-08-17T12:25:13.922Z,607.50
2018-08-17T12:26:13.898Z,590.63
2018-08-17T12:27:13.890Z,573.75
2018-08-17T12:28:13.859Z,427.50
2018-08-17T12:29:13.854Z,466.88
2018-08-17T12:30:13.837Z,416.25
2018-08-17T12:31:13.820Z,562.50
2018-08-17T12:32:13.866Z,517.50
2018-08-17T12:33:13.786Z,528.75
2018-08-17T12:34:13.773Z,568.13
2018-08-17T12:35:13.759Z,556.88
2018-08-17T12:36:13.747Z,528.75
2018-08-17T12:37:13.728Z,500.63
2018-08-17T12:38:13.715Z,523.13
2018-08-17T12:39:13.696Z,483.75
2018-08-17T12:40:13.724Z,500.63
2018-08-17T12:41:13.670Z,511.88
2018-08-17T12:42:13.647Z,517.50
2018-08-17T12:43:13.634Z,523.13
2018-08-17T12:44:13.619Z,517.50
2018-08-17T12:45:13.600Z,511.88
2018-08-17T12:46:13.579Z,483.75
2018-08-17T12:47:13.570Z,478.13
2018-08-17T12:48:13.554Z,500.63
2018-08-17T12:49:13.538Z,489.38
2018-08-17T12:50:13.527Z,326.25
2018-08-17T12:51:13.506Z,326.25
2018-08-17T12:52:13.548Z,444.38
2018-08-17T12:53:13.474Z,517.50
2018-08-17T12:54:13.476Z,455.63
2018-08-17T12:55:13.438Z,483.75
2018-08-17T12:56:13.428Z,500.63
2018-08-17T12:57:13.408Z,483.75
2018-08-17T12:58:13.405Z,354.38
2018-08-17T12:59:13.377Z,337.50
2018-08-17T13:00:13.359Z,331.88
2018-08-17T13:01:13.350Z,326.25
2018-08-17T13:02:13.327Z,320.63
2018-08-17T13:03:13.314Z,309.38
2018-08-17T13:04:13.293Z,326.25
2018-08-17T13:05:13.275Z,489.38
2018-08-17T13:06:13.263Z,500.63
2018-08-17T13:07:13.245Z,489.38
2018-08-17T13:08:13.223Z,489.38
2018-08-17T13:09:13.215Z,478.13
2018-08-17T13:10:13.196Z,489.38
2018-08-17T13:11:13.182Z,472.50
2018-08-17T13:12:13.161Z,433.13
2018-08-17T13:13:13.141Z,421.88
2018-08-17T13:14:13.151Z,478.13
2018-08-17T13:15:13.112Z,478.13
2018-08-17T13:16:13.098Z,495.00
2018-08-17T13:17:13.095Z,506.25
2018-08-17T13:18:13.062Z,478.13
2018-08-17T13:19:13.046Z,500.63
2018-08-17T13:20:13.029Z,483.75
2018-08-17T13:21:13.006Z,511.88
2018-08-17T13:22:13.001Z,523.13
2018-08-17T13:23:13.127Z,517.50
2018-08-17T13:24:12.977Z,444.38
2018-08-17T13:25:12.941Z,376.88
2018-08-17T13:26:12.937Z,517.50
2018-08-17T13:27:12.918Z,523.13
2018-08-17T13:28:12.895Z,523.13
2018-08-17T13:29:12.884Z,534.38
2018-08-17T13:30:12.864Z,393.75
2018-08-17T13:31:12.843Z,343.13
2018-08-17T13:32:12.828Z,360.00
2018-08-17T13:33:12.813Z,326.25
2018-08-17T13:34:12.795Z,348.75
2018-08-17T13:35:12.788Z,506.25
2018-08-17T13:36:12.849Z,517.50
2018-08-17T13:37:12.745Z,517.50
2018-08-17T13:38:12.728Z,511.88
2018-08-17T13:39:12.719Z,506.25
2018-08-17T13:40:12.694Z,405.00
2018-08-17T13:41:12.680Z,410.63
2018-08-17T13:42:12.719Z,405.00
2018-08-17T13:43:13.479Z,495.00
2018-08-17T13:44:12.626Z,483.75
2018-08-17T13:45:12.612Z,483.75
2018-08-17T13:46:12.596Z,309.38
2018-08-17T13:47:12.577Z,303.75
2018-08-17T13:48:12.560Z,298.13
2018-08-17T13:49:12.543Z,303.75
2018-08-17T13:50:12.530Z,315.00
2018-08-17T13:51:12.508Z,326.25
2018-08-17T13:52:12.499Z,331.88
2018-08-17T13:53:12.476Z,495.00
2018-08-17T13:54:12.467Z,354.38
2018-08-17T13:55:12.437Z,376.88
2018-08-17T13:56:12.433Z,348.75
2018-08-17T13:57:12.408Z,343.13
2018-08-17T13:58:12.390Z,337.50
2018-08-17T13:59:12.382Z,326.25
2018-08-17T14:00:12.365Z,303.75
2018-08-17T14:01:12.369Z,286.88
2018-08-17T14:02:12.342Z,275.63
2018-08-17T14:03:12.308Z,365.63
2018-08-17T14:04:12.282Z,270.00
2018-08-17T14:05:12.271Z,275.63
2018-08-17T14:06:12.257Z,286.88
2018-08-17T14:07:12.238Z,309.38
2018-08-17T14:08:12.267Z,438.75
2018-08-17T14:09:12.208Z,405.00
2018-08-17T14:10:12.304Z,405.00
2018-08-17T14:11:12.174Z,360.00
2018-08-17T14:12:12.148Z,343.13
2018-08-17T14:13:12.136Z,337.50
2018-08-17T14:14:12.116Z,326.25
2018-08-17T14:15:12.100Z,354.38
2018-08-17T14:16:12.098Z,315.00
2018-08-17T14:17:12.066Z,303.75
2018-08-17T14:18:12.049Z,303.75
2018-08-17T14:19:12.032Z,303.75
2018-08-17T14:20:12.012Z,303.75
2018-08-17T14:21:11.995Z,309.38
2018-08-17T14:22:12.031Z,320.63
2018-08-17T14:23:11.961Z,337.50
2018-08-17T14:24:11.944Z,365.63
2018-08-17T14:25:11.925Z,360.00
2018-08-17T14:26:11.907Z,360.00
2018-08-17T14:27:11.891Z,354.38
2018-08-17T14:28:11.873Z,365.63
2018-08-17T14:29:11.860Z,365.63
2018-08-17T14:30:11.836Z,511.88
2018-08-17T14:31:11.820Z,511.88
2018-08-17T14:32:11.801Z,495.00
2018-08-17T14:33:11.787Z,466.88
2018-08-17T14:34:11.815Z,331.88
2018-08-17T14:35:11.801Z,315.00
2018-08-17T14:36:11.732Z,298.13
2018-08-17T14:37:11.709Z,292.50
2018-08-17T14:38:11.718Z,303.75
2018-08-17T14:39:11.678Z,309.38
2018-08-17T14:40:11.692Z,337.50
2018-08-17T14:41:11.639Z,393.75
2018-08-17T14:42:11.634Z,421.88
2018-08-17T14:43:11.611Z,438.75
2018-08-17T14:44:11.602Z,438.75
2018-08-17T14:45:11.566Z,433.13
2018-08-17T14:46:11.562Z,427.50
2018-08-17T14:47:11.533Z,421.88
2018-08-17T14:48:11.520Z,416.25
2018-08-17T14:49:11.501Z,410.63
2018-08-17T14:50:11.483Z,405.00
2018-08-17T14:51:11.465Z,399.38
2018-08-17T14:52:11.445Z,393.75
2018-08-17T14:53:11.433Z,388.13
2018-08-17T14:54:11.412Z,388.13
2018-08-17T14:55:11.391Z,388.13
2018-08-17T14:56:11.374Z,388.13
2018-08-17T14:57:11.362Z,388.13
2018-08-17T14:58:11.343Z,382.50
2018-08-17T14:59:11.324Z,382.50
2018-08-17T15:00:11.310Z,382.50
2018-08-17T15:01:11.353Z,382.50
2018-08-17T15:02:11.265Z,382.50
2018-08-17T15:03:11.247Z,382.50
2018-08-17T15:04:11.227Z,382.50
2018-08-17T15:05:11.215Z,382.50
2018-08-17T15:06:12.078Z,382.50
2018-08-17T15:07:11.173Z,382.50
2018-08-17T15:08:11.155Z,376.88
2018-08-17T15:09:11.142Z,371.25
2018-08-17T15:10:11.122Z,371.25
2018-08-17T15:11:11.101Z,376.88
2018-08-17T15:12:11.081Z,371.25
2018-08-17T15:13:11.117Z,371.25
2018-08-17T15:14:11.053Z,371.25
2018-08-17T15:15:11.025Z,365.63
2018-08-17T15:16:11.010Z,365.63
2018-08-17T15:17:10.993Z,365.63
2018-08-17T15:18:12.650Z,365.63
2018-08-17T15:19:10.955Z,365.63
2018-08-17T15:20:10.936Z,365.63
2018-08-17T15:21:10.919Z,360.00
2018-08-17T15:22:10.899Z,360.00
2018-08-17T15:23:10.881Z,360.00
2018-08-17T15:24:10.891Z,360.00
2018-08-17T15:25:10.848Z,360.00
2018-08-17T15:26:10.829Z,360.00
2018-08-17T15:27:10.803Z,360.00
2018-08-17T15:28:10.791Z,354.38
2018-08-17T15:29:10.773Z,354.38
2018-08-17T15:30:10.758Z,348.75
2018-08-17T15:31:10.732Z,348.75
2018-08-17T15:32:10.718Z,343.13
2018-08-17T15:33:10.700Z,343.13
2018-08-17T15:34:10.679Z,343.13
2018-08-17T15:35:10.658Z,343.13
2018-08-17T15:36:10.639Z,337.50
2018-08-17T15:37:10.624Z,303.75
2018-08-17T15:38:10.605Z,275.63
2018-08-17T15:39:10.578Z,281.25
2018-08-17T15:40:10.566Z,320.63
2018-08-17T15:41:10.556Z,315.00
2018-08-17T15:42:11.063Z,315.00
2018-08-17T15:43:10.513Z,320.63
2018-08-17T15:44:10.489Z,320.63
2018-08-17T15:45:10.480Z,331.88
2018-08-17T15:46:10.489Z,326.25
2018-08-17T15:47:10.436Z,326.25
2018-08-17T15:48:10.416Z,326.25
2018-08-17T15:49:10.406Z,326.25
2018-08-17T15:50:10.380Z,320.63
2018-08-17T15:51:10.370Z,326.25
2018-08-17T15:52:10.390Z,326.25
2018-08-17T15:53:10.333Z,326.25
2018-08-17T15:54:10.298Z,320.63
2018-08-17T15:55:10.284Z,320.63
2018-08-17T15:56:10.263Z,315.00
2018-08-17T15:57:10.243Z,303.75
2018-08-17T15:58:10.241Z,303.75
2018-08-17T15:59:10.207Z,286.88
2018-08-17T16:00:10.196Z,275.63
2018-08-17T16:01:18.207Z,303.75
2018-08-17T16:03:03.307Z,298.13
2018-08-17T16:04:03.267Z,281.25
2018-08-17T16:05:56.907Z,292.50
2018-08-17T16:06:56.860Z,298.13
2018-08-17T16:08:50.184Z,303.75
2018-08-17T16:09:50.158Z,298.13
2018-08-17T16:11:43.812Z,298.13
2018-08-17T16:12:43.770Z,298.13
2018-08-17T16:14:37.083Z,292.50
2018-08-17T16:15:37.063Z,281.25
2018-08-17T16:17:30.202Z,275.63
2018-08-17T16:18:30.161Z,264.38
2018-08-17T16:20:23.804Z,275.63
2018-08-17T16:21:23.758Z,270.00
2018-08-17T16:23:16.611Z,258.75
2018-08-17T16:24:16.563Z,247.50
2018-08-17T16:26:09.694Z,253.13
2018-08-17T16:27:09.654Z,258.75
2018-08-17T16:29:03.322Z,264.38
2018-08-17T16:30:03.262Z,258.75
2018-08-17T16:31:56.438Z,247.50
2018-08-17T16:32:56.356Z,230.63
2018-08-17T16:34:49.999Z,230.63
2018-08-17T16:35:49.953Z,225.00
2018-08-17T16:37:43.591Z,236.25
2018-08-17T16:38:43.557Z,247.50
2018-08-17T16:40:36.899Z,253.13
2018-08-17T16:41:36.852Z,258.75
2018-08-17T16:43:29.683Z,281.25
2018-08-17T16:44:29.662Z,292.50
2018-08-17T16:46:23.325Z,315.00
2018-08-17T16:47:23.246Z,303.75
2018-08-17T16:49:16.095Z,303.75
2018-08-17T16:50:16.047Z,303.75
2018-08-17T16:52:08.916Z,253.13
2018-08-17T16:53:08.898Z,253.13
2018-08-17T16:55:01.990Z,298.13
2018-08-17T16:56:01.965Z,292.50
2018-08-17T16:57:56.608Z,281.25
2018-08-17T16:58:56.583Z,270.00
2018-08-17T17:00:49.922Z,264.38
2018-08-17T17:01:49.871Z,270.00
2018-08-17T17:03:43.299Z,253.13
2018-08-17T17:04:42.862Z,241.88
2018-08-17T17:06:36.408Z,180.00
2018-08-17T17:07:36.265Z,180.00
2018-08-17T17:09:29.903Z,180.00
2018-08-17T17:10:29.865Z,219.38
2018-08-17T17:12:23.468Z,168.75
2018-08-17T17:13:23.448Z,202.50
2018-08-17T17:15:16.791Z,163.13
2018-08-17T17:16:16.744Z,163.13
2018-08-17T17:18:09.571Z,174.38
2018-08-17T17:19:09.547Z,191.25
2018-08-17T17:21:03.198Z,185.63
2018-08-17T17:22:03.146Z,185.63
2018-08-17T17:23:56.296Z,174.38
2018-08-17T17:24:57.064Z,168.75
2018-08-17T17:26:49.146Z,163.13
2018-08-17T17:27:49.108Z,151.88
2018-08-17T17:29:41.891Z,146.25
2018-08-17T17:30:41.851Z,140.63
2018-08-17T17:31:41.827Z,135.00
2018-08-17T17:32:41.810Z,129.38
2018-08-17T17:33:41.787Z,123.75
2018-08-17T17:34:41.830Z,118.13
2018-08-17T17:35:41.746Z,112.50
2018-08-17T17:36:41.725Z,112.50
2018-08-17T17:37:41.713Z,101.25
2018-08-17T17:38:41.678Z,95.63
2018-08-17T17:39:41.680Z,90.00
2018-08-17T17:40:41.644Z,84.38
2018-08-17T17:41:41.622Z,84.38
2018-08-17T17:42:41.601Z,78.75
2018-08-17T17:43:41.580Z,73.13
2018-08-17T17:44:41.608Z,73.13
2018-08-17T17:45:41.532Z,67.50
2018-08-17T17:46:41.521Z,67.50
2018-08-17T17:47:41.494Z,61.88
2018-08-17T17:48:41.472Z,61.88
2018-08-17T17:49:41.446Z,61.88
2018-08-17T17:50:41.428Z,56.25
2018-08-17T17:51:41.408Z,56.25
2018-08-17T17:52:41.394Z,56.25
2018-08-17T17:53:41.370Z,56.25
2018-08-17T17:54:41.339Z,61.88
2018-08-17T17:55:41.318Z,61.88
2018-08-17T17:56:41.294Z,61.88
2018-08-17T17:57:41.274Z,67.50
2018-08-17T17:58:41.251Z,61.88
2018-08-17T17:59:41.227Z,61.88
2018-08-17T18:00:41.209Z,61.88
2018-08-17T18:01:41.189Z,56.25
2018-08-17T18:02:41.160Z,61.88
2018-08-17T18:03:41.141Z,61.88
2018-08-17T18:04:41.132Z,61.88
2018-08-17T18:05:41.095Z,61.88
2018-08-17T18:06:41.072Z,56.25
2018-08-17T18:07:41.056Z,50.63
2018-08-17T18:08:41.030Z,45.00
2018-08-17T18:09:41.004Z,45.00
2018-08-17T18:10:40.983Z,45.00
2018-08-17T18:11:40.963Z,39.38
2018-08-17T18:12:40.944Z,39.38
2018-08-17T18:13:40.917Z,33.75
2018-08-17T18:14:40.905Z,33.75
2018-08-17T18:15:40.871Z,33.75
2018-08-17T18:16:40.850Z,28.13
2018-08-17T18:17:40.825Z,28.13
2018-08-17T18:18:40.803Z,28.13
2018-08-17T18:19:40.784Z,28.13
2018-08-17T18:20:40.759Z,28.13
2018-08-17T18:21:40.748Z,22.50
2018-08-17T18:22:40.714Z,22.50
2018-08-17T18:23:40.694Z,22.50
2018-08-17T18:24:40.665Z,16.88
2018-08-17T18:25:40.645Z,16.88
2018-08-17T18:26:40.632Z,16.88
2018-08-17T18:27:40.596Z,11.25
2018-08-17T18:28:40.577Z,11.25
2018-08-17T18:29:40.554Z,11.25
2018-08-17T18:30:40.584Z,11.25
2018-08-17T18:31:40.515Z,11.25
2018-08-17T18:32:40.485Z,5.63
2018-08-17T18:33:40.469Z,5.63
2018-08-17T18:34:40.437Z,5.63
2018-08-17T18:35:40.415Z,5.63
2018-08-17T18:36:40.395Z,5.63
2018-08-17T18:37:40.366Z,5.63
2018-08-17T18:38:40.341Z,5.63
2018-08-17T18:39:40.325Z,5.63
2018-08-17T18:40:40.306Z,0.00
2018-08-17T18:41:40.274Z,0.00
2018-08-17T18:42:40.250Z,0.00
2018-08-17T18:43:40.228Z,0.00
2018-08-17T18:44:40.203Z,0.00
2018-08-17T18:45:40.179Z,0.00
2018-08-17T18:46:40.184Z,0.00
2018-08-17T18:47:40.127Z,0.00
2018-08-17T18:48:40.110Z,0.00
2018-08-17T18:49:40.085Z,0.00
2018-08-17T18:50:40.063Z,0.00
2018-08-17T18:51:40.035Z,0.00
2018-08-17T18:52:40.068Z,0.00
2018-08-17T18:53:39.991Z,0.00
2018-08-17T18:54:39.961Z,0.00
2018-08-17T18:55:39.945Z,0.00
2018-08-17T18:56:39.921Z,0.00
2018-08-17T18:57:39.891Z,0.00
2018-08-17T18:58:39.872Z,0.00
2018-08-17T18:59:39.849Z,0.00
2018-08-17T19:00:39.832Z,0.00
2018-08-17T19:01:39.807Z,0.00
2018-08-17T19:02:39.776Z,0.00
2018-08-17T19:03:39.754Z,0.00
2018-08-17T19:04:39.734Z,0.00
2018-08-17T19:05:39.704Z,0.00
2018-08-17T19:06:39.689Z,0.00
2018-08-17T19:07:39.660Z,0.00
2018-08-17T19:08:39.634Z,0.00
2018-08-17T19:09:39.607Z,0.00
2018-08-17T19:10:39.584Z,0.00
2018-08-17T19:11:39.565Z,0.00
2018-08-17T19:12:39.537Z,0.00
2018-08-17T19:13:39.516Z,0.00
2018-08-17T19:14:39.504Z,0.00
2018-08-17T19:15:39.535Z,0.00
2018-08-17T19:16:39.442Z,0.00
2018-08-17T19:17:39.419Z,0.00
2018-08-17T19:18:39.392Z,0.00
2018-08-17T19:19:39.373Z,0.00
2018-08-17T19:20:39.342Z,0.00
2018-08-17T19:21:39.332Z,0.00
2018-08-17T19:22:39.302Z,0.00
2018-08-17T19:23:39.274Z,0.00
2018-08-17T19:24:39.256Z,0.00
2018-08-17T19:25:39.225Z,0.00
2018-08-17T19:26:39.200Z,0.00
2018-08-17T19:27:39.179Z,0.00
2018-08-17T19:28:39.153Z,0.00
2018-08-17T19:29:39.129Z,0.00
2018-08-17T19:30:39.101Z,0.00
2018-08-17T19:31:39.080Z,0.00
2018-08-17T19:32:39.056Z,0.00
2018-08-17T19:33:39.029Z,0.00
2018-08-17T19:34:39.021Z,0.00
2018-08-17T19:35:38.984Z,0.00
2018-08-17T19:36:38.965Z,0.00
2018-08-17T19:37:38.934Z,0.00
2018-08-17T19:38:38.911Z,0.00
2018-08-17T19:39:38.887Z,0.00
2018-08-17T19:40:38.864Z,0.00
2018-08-17T19:41:38.837Z,0.00
2018-08-17T19:42:38.816Z,0.00
2018-08-17T19:43:38.788Z,0.00
2018-08-17T19:44:38.766Z,0.00
2018-08-17T19:45:38.746Z,0.00
2018-08-17T19:46:38.711Z,0.00
2018-08-17T19:47:38.717Z,0.00
2018-08-17T19:48:38.673Z,0.00
2018-08-17T19:49:38.653Z,0.00
2018-08-17T19:50:38.625Z,0.00
2018-08-17T19:51:38.613Z,0.00
2018-08-17T19:52:38.573Z,0.00
2018-08-17T19:53:38.547Z,0.00
2018-08-17T19:54:38.524Z,0.00
2018-08-17T19:55:38.504Z,0.00
2018-08-17T19:56:38.470Z,0.00
2018-08-17T19:57:38.449Z,0.00
2018-08-17T19:58:38.426Z,0.00
2018-08-17T19:59:38.403Z,0.00
2018-08-17T20:00:38.388Z,0.00
2018-08-17T20:01:38.353Z,0.00
2018-08-17T20:02:38.336Z,0.00
2018-08-17T20:03:38.306Z,0.00
2018-08-17T20:04:38.280Z,0.00
2018-08-17T20:05:38.255Z,0.00
2018-08-17T20:06:38.231Z,0.00
2018-08-17T20:07:38.250Z,0.00
2018-08-17T20:08:38.184Z,0.00
2018-08-17T20:09:38.153Z,0.00
2018-08-17T20:10:38.135Z,0.00
2018-08-17T20:11:38.108Z,0.00
2018-08-17T20:12:38.080Z,0.00
2018-08-17T20:13:38.062Z,0.00
2018-08-17T20:14:38.036Z,0.00
2018-08-17T20:15:38.023Z,0.00
2018-08-17T20:16:37.991Z,0.00
2018-08-17T20:17:37.961Z,0.00
2018-08-17T20:18:37.937Z,0.00
2018-08-17T20:19:37.914Z,0.00
2018-08-17T20:20:37.889Z,0.00
2018-08-17T20:21:37.865Z,0.00
2018-08-17T20:22:37.837Z,0.00
2018-08-17T20:23:37.815Z,0.00
2018-08-17T20:24:37.793Z,0.00
2018-08-17T20:25:37.776Z,0.00
2018-08-17T20:26:38.092Z,0.00
2018-08-17T20:27:37.716Z,0.00
2018-08-17T20:28:37.693Z,0.00
2018-08-17T20:29:37.666Z,0.00
2018-08-17T20:30:37.643Z,0.00
2018-08-17T20:31:37.618Z,0.00
2018-08-17T20:32:37.595Z,0.00
2018-08-17T20:33:37.567Z,0.00
2018-08-17T20:34:37.543Z,0.00
2018-08-17T20:35:37.520Z,0.00
2018-08-17T20:36:37.514Z,0.00
2018-08-17T20:37:37.474Z,0.00
2018-08-17T20:38:37.472Z,0.00
2018-08-17T20:39:37.419Z,0.00
2018-08-17T20:40:37.396Z,0.00
2018-08-17T20:41:37.364Z,0.00
2018-08-17T20:42:37.361Z,0.00
2018-08-17T20:43:37.319Z,0.00
2018-08-17T20:44:37.296Z,0.00
2018-08-17T20:45:37.270Z,0.00
2018-08-17T20:46:37.250Z,0.00
2018-08-17T20:47:37.224Z,0.00
2018-08-17T20:48:37.194Z,0.00
2018-08-17T20:49:37.172Z,0.00
2018-08-17T20:50:37.147Z,0.00
2018-08-17T20:51:37.124Z,0.00
2018-08-17T20:52:37.098Z,0.00
2018-08-17T20:53:37.072Z,0.00
2018-08-17T20:54:37.045Z,0.00
2018-08-17T20:55:37.027Z,0.00
2018-08-17T20:56:36.998Z,0.00
2018-08-17T20:57:36.966Z,0.00
2018-08-17T20:58:36.945Z,0.00
2018-08-17T20:59:36.923Z,0.00
2018-08-17T21:00:36.972Z,0.00
2018-08-17T21:01:36.873Z,0.00
2018-08-17T21:02:36.852Z,0.00
2018-08-17T21:03:36.837Z,0.00
2018-08-17T21:04:36.796Z,0.00
2018-08-17T21:05:36.772Z,0.00
2018-08-17T21:06:36.750Z,0.00
2018-08-17T21:07:36.734Z,0.00
2018-08-17T21:08:36.703Z,0.00
2018-08-17T21:09:36.678Z,0.00
2018-08-17T21:10:36.657Z,0.00
2018-08-17T21:11:36.741Z,0.00
2018-08-17T21:12:36.599Z,0.00